Time,TemperatureF,DewpointF,PressureIn,WindDirection,WindDirectionDegrees,WindSpeedMPH,WindSpeedGustMPH,Humidity,HourlyPrecipIn,Conditions,Clouds,dailyrainin,SoftwareType,DateUTC
2013-02-13 00:29:00,37.9,37.9,30.33,SW,217,0.0,2.0,100,0.00,,---,0.00,VWS V13.01,2013-02-13 08:29:00,
2013-02-13 00:59:00,37.5,37.5,30.33,SW,217,0.0,0.0,100,0.00,,---,0.00,VWS V13.01,2013-02-13 08:59:00,
2013-02-13 01:29:00,37.2,37.2,30.32,SW,217,0.0,0.0,100,0.00,,---,0.00,VWS V13.01,2013-02-13 09:29:00,
2013-02-13 01:59:00,36.3,36.3,30.32,SW,217,0.0,0.0,100,0.00,,---,0.00,VWS V13.01,2013-02-13 09:59:00,
2013-02-13 02:29:00,36.6,36.6,30.32,SW,217,0.0,2.0,100,0.00,,---,0.00,VWS V13.01,2013-02-13 10:29:00,
2013-02-13 02:59:00,36.2,36.2,30.31,SW,217,0.0,0.0,100,0.00,,---,0.00,VWS V13.01,2013-02-13 10:59:00,
2013-02-13 03:29:00,36.0,36.0,30.31,SW,217,0.0,1.0,100,0.00,,---,0.00,VWS V13.01,2013-02-13 11:29:00,
2013-02-13 03:59:00,36.2,36.2,30.31,SW,217,0.0,2.0,100,0.00,,---,0.00,VWS V13.01,2013-02-13 11:59:00,
2013-02-13 04:29:00,35.9,35.9,30.31,SW,217,0.0,1.0,100,0.00,,---,0.00,VWS V13.01,2013-02-13 12:29:00,
2013-02-13 04:59:00,35.6,35.6,30.31,SW,217,0.0,0.0,100,0.00,,---,0.00,VWS V13.01,2013-02-13 12:59:00,
2013-02-13 05:29:00,35.3,35.3,30.31,SW,217,0.0,0.0,100,0.00,,---,0.00,VWS V13.01,2013-02-13 13:29:00,
2013-02-13 05:59:00,35.2,35.2,30.31,SW,217,0.0,0.0,100,0.00,,---,0.00,VWS V13.01,2013-02-13 13:59:00,
2013-02-13 06:29:00,35.0,35.0,30.32,SW,217,0.0,0.0,100,0.00,,---,0.00,VWS V13.01,2013-02-13 14:29:00,
2013-02-13 06:59:00,34.7,34.7,30.32,SW,217,0.0,0.0,100,0.00,,---,0.00,VWS V13.01,2013-02-13 14:59:00,
2013-02-13 07:29:00,35.0,35.0,30.33,SW,217,0.0,0.0,100,0.00,,---,0.00,VWS V13.01,2013-02-13 15:29:00,
2013-02-13 07:59:00,35.9,35.9,30.33,SW,217,0.0,0.0,100,0.00,,---,0.00,VWS V13.01,2013-02-13 15:59:00,
2013-02-13 08:29:00,39.1,39.1,30.33,SW,217,0.0,0.0,100,0.00,,---,0.00,VWS V13.01,2013-02-13 16:29:00,
2013-02-13 08:59:00,45.2,45.2,30.33,SW,217,0.0,0.0,100,0.00,,---,0.00,VWS V13.01,2013-02-13 16:59:00,
2013-02-13 09:29:00,46.7,46.7,30.34,SSW,208,2.0,5.0,100,0.00,,---,0.00,VWS V13.01,2013-02-13 17:29:00,
2013-02-13 09:59:00,49.8,35.6,30.33,SSW,199,0.0,4.0,58,0.00,,---,0.00,VWS V13.01,2013-02-13 17:59:00,
2013-02-13 10:29:00,51.3,28.4,30.33,SSW,208,5.0,6.0,41,0.00,,---,0.00,VWS V13.01,2013-02-13 18:29:00,
2013-02-13 10:59:00,51.7,28.2,30.32,WSW,240,3.0,7.0,40,0.00,,---,0.00,VWS V13.01,2013-02-13 18:59:00,
2013-02-13 11:29:00,53.5,30.4,30.31,SW,223,2.0,6.0,41,0.00,,---,0.00,VWS V13.01,2013-02-13 19:29:00,
2013-02-13 11:59:00,53.5,31.6,30.30,South,186,6.0,8.0,43,0.00,,---,0.00,VWS V13.01,2013-02-13 19:59:00,
2013-02-13 12:29:00,54.5,27.4,30.28,SW,226,2.0,8.0,35,0.00,,---,0.00,VWS V13.01,2013-02-13 20:29:00,
2013-02-13 12:59:00,55.7,14.1,30.26,South,182,4.0,6.0,19,0.00,,---,0.00,VWS V13.01,2013-02-13 20:59:00,
2013-02-13 13:29:00,56.9,-13.4,30.25,South,185,2.0,6.0,5,0.00,,---,0.00,VWS V13.01,2013-02-13 21:29:00,
2013-02-13 13:59:00,55.9,-24.0,30.24,SSE,155,4.0,8.0,3,0.00,,---,0.00,VWS V13.01,2013-02-13 21:59:00,
2013-02-13 14:29:00,57.2,0.0,30.24,SSW,202,0.0,8.0,0,0.00,,---,0.00,VWS V13.01,2013-02-13 22:29:00,
2013-02-13 14:59:00,59.5,0.0,30.22,SW,215,2.0,6.0,0,0.00,,---,0.00,VWS V13.01,2013-02-13 22:59:00,
2013-02-13 15:29:00,60.2,0.0,30.22,SW,226,2.0,7.0,0,0.00,,---,0.00,VWS V13.01,2013-02-13 23:29:00,
2013-02-13 15:59:00,59.2,0.0,30.22,SSW,210,1.0,6.0,0,0.00,,---,0.00,VWS V13.01,2013-02-13 23:59:00,
2013-02-13 16:29:00,59.3,0.0,30.21,SSW,205,2.0,5.0,0,0.00,,---,0.00,VWS V13.01,2013-02-14 00:29:00,
2013-02-13 16:59:00,58.6,0.0,30.21,South,176,0.0,3.0,0,0.00,,---,0.00,VWS V13.01,2013-02-14 00:59:00,
2013-02-13 17:29:00,57.8,-42.4,30.21,South,176,0.0,3.0,1,0.00,,---,0.00,VWS V13.01,2013-02-14 01:29:00,
2013-02-13 17:59:00,52.8,14.0,30.21,South,176,0.0,0.0,21,0.00,,---,0.00,VWS V13.01,2013-02-14 01:59:00,
2013-02-13 18:29:00,50.1,25.5,30.21,South,176,0.0,2.0,38,0.00,,---,0.00,VWS V13.01,2013-02-14 02:29:00,
2013-02-13 18:59:00,48.3,33.8,30.22,South,176,0.0,1.0,57,0.00,,---,0.00,VWS V13.01,2013-02-14 02:59:00,
2013-02-13 19:29:00,47.0,37.7,30.22,South,176,0.0,1.0,70,0.00,,---,0.00,VWS V13.01,2013-02-14 03:29:00,
2013-02-13 19:59:00,46.1,40.0,30.22,South,176,0.0,2.0,79,0.00,,---,0.00,VWS V13.01,2013-02-14 03:59:00,
2013-02-13 20:29:00,45.2,41.9,30.21,South,176,0.0,2.0,88,0.00,,---,0.00,VWS V13.01,2013-02-14 04:29:00,
2013-02-13 20:59:00,44.2,41.7,30.22,South,176,0.0,0.0,91,0.00,,---,0.00,VWS V13.01,2013-02-14 04:59:00,
2013-02-13 21:29:00,43.1,41.8,30.22,South,176,0.0,1.0,95,0.00,,---,0.00,VWS V13.01,2013-02-14 05:29:00,
2013-02-13 21:59:00,42.3,42.0,30.22,South,176,0.0,0.0,99,0.00,,---,0.00,VWS V13.01,2013-02-14 05:59:00,
2013-02-13 22:29:00,41.8,41.8,30.22,South,176,0.0,0.0,100,0.00,,---,0.00,VWS V13.01,2013-02-14 06:29:00,
2013-02-13 22:59:00,41.1,41.1,30.22,South,176,0.0,0.0,100,0.00,,---,0.00,VWS V13.01,2013-02-14 06:59:00,
2013-02-13 23:29:00,41.2,41.2,30.22,South,176,0.0,1.0,100,0.00,,---,0.00,VWS V13.01,2013-02-14 07:29:00,
2013-02-13 23:59:00,40.9,40.9,30.21,South,176,0.0,1.0,100,0.00,,---,0.00,VWS V13.01,2013-02-14 07:59:00,